Time;durP1;ratioP1;P1;durP2;ratioP2;P2;SDS_P1;SDS_P2;PMS_P1;PMS_P2;Temp;Humidity;BMP_temperature;BMP_pressure;BME280_temperature;BME280_humidity;BME280_pressure;Samples;Min_cycle;Max_cycle;Signal;HPM_P1;HPM_P2
2021/04/17 00:19:57;;;;;;;0.33;0.33;;;8.90;99.90;;;;;;20960184;22;20232;-86
2021/04/17 00:30:00;;;;;;;0.20;0.20;;;9.10;99.90;;;;;;20938048;28;20223;-85
2021/04/17 00:40:08;;;;;;;0.20;0.17;;;9.20;99.90;;;;;;21696398;22;20243;-85
2021/04/17 00:50:30;;;;;;;0.40;0.30;;;9.30;99.90;;;;;;20950647;28;20247;-87
2021/04/17 01:00:37;;;;;;;0.77;0.77;;;9.10;99.90;;;;;;21715978;22;20247;-87
2021/04/17 01:10:48;;;;;;;0.40;0.40;;;9.20;99.90;;;;;;21345443;22;20229;-83
2021/04/17 01:42:50;;;;;;;0.60;0.60;;;9.00;99.90;;;;;;20774128;23;20532;-87
2021/04/17 01:52:54;;;;;;;0.40;0.40;;;9.20;99.90;;;;;;20606138;23;20639;-85
2021/04/17 02:02:58;;;;;;;1.27;1.17;;;9.10;99.90;;;;;;20591930;28;20203;-84
2021/04/17 02:13:01;;;;;;;0.30;0.30;;;8.90;99.90;;;;;;20624201;28;20239;-84
2021/04/17 02:23:05;;;;;;;0.67;0.67;;;8.80;99.90;;;;;;20611508;28;20361;-79
2021/04/17 02:33:07;;;;;;;0.87;0.87;;;8.60;99.90;;;;;;20622674;28;20237;-76
2021/04/17 02:43:11;;;;;;;2.40;1.30;;;8.60;99.90;;;;;;20623210;28;20621;-81
2021/04/17 02:53:23;;;;;;;2.67;1.53;;;8.50;99.90;;;;;;20623311;28;20379;-77
2021/04/17 03:03:47;;;;;;;1.27;0.93;;;8.30;99.90;;;;;;20593946;23;20322;-76
2021/04/17 03:13:51;;;;;;;0.30;0.30;;;8.00;99.90;;;;;;20533767;28;20243;-77
2021/04/17 03:23:54;;;;;;;2.20;1.47;;;7.70;99.90;;;;;;20534669;28;20204;-76
2021/04/17 03:33:56;;;;;;;4.47;0.80;;;7.40;99.90;;;;;;20533007;28;20224;-77
2021/04/17 03:44:00;;;;;;;1.00;0.73;;;7.30;99.90;;;;;;20535810;28;20224;-75
2021/04/17 03:54:03;;;;;;;0.60;0.60;;;7.10;99.90;;;;;;20534966;28;20234;-76
2021/04/17 04:04:07;;;;;;;0.70;0.63;;;7.10;99.90;;;;;;20517793;28;20230;-77
2021/04/17 04:14:10;;;;;;;1.13;1.00;;;7.00;99.90;;;;;;20533929;28;20318;-77
2021/04/17 04:24:14;;;;;;;0.60;0.60;;;7.00;99.90;;;;;;20533916;28;20208;-76
2021/04/17 04:34:16;;;;;;;0.40;0.40;;;7.00;99.90;;;;;;20540371;28;20231;-77
2021/04/17 04:44:20;;;;;;;2.20;1.03;;;7.30;99.90;;;;;;20549132;28;20363;-76
2021/04/17 04:54:22;;;;;;;0.40;0.40;;;7.40;99.90;;;;;;20546318;28;20223;-76
2021/04/17 05:04:26;;;;;;;1.07;0.50;;;7.60;99.90;;;;;;20547386;28;20235;-76
2021/04/17 05:14:28;;;;;;;0.43;0.43;;;7.60;99.90;;;;;;20544899;28;20227;-75
2021/04/17 05:24:32;;;;;;;0.20;0.10;;;7.70;99.90;;;;;;20545489;28;20964;-75
2021/04/17 05:34:34;;;;;;;0.77;0.77;;;7.70;99.90;;;;;;20545257;28;20278;-74
2021/04/17 05:44:38;;;;;;;0.37;0.37;;;8.00;99.90;;;;;;20547689;28;20196;-72
2021/04/17 05:54:41;;;;;;;0.70;0.50;;;8.10;99.90;;;;;;20542120;28;20220;-74
2021/04/17 06:04:46;;;;;;;0.30;0.30;;;8.10;99.90;;;;;;20522739;28;20228;-75
2021/04/17 06:14:48;;;;;;;0.47;0.40;;;8.40;99.90;;;;;;20540494;28;20239;-75
2021/04/17 06:24:57;;;;;;;0.40;0.33;;;8.80;99.90;;;;;;20542628;28;20335;-74
2021/04/17 06:35:00;;;;;;;0.97;0.67;;;8.90;99.90;;;;;;20539812;28;20215;-75
2021/04/17 06:45:05;;;;;;;0.20;0.20;;;9.00;99.90;;;;;;20542608;28;20204;-75
2021/04/17 06:55:10;;;;;;;0.30;0.30;;;9.40;99.90;;;;;;20549213;28;20259;-75
2021/04/17 07:05:14;;;;;;;1.23;0.83;;;9.80;99.90;;;;;;20557282;28;20321;-74
2021/04/17 07:15:17;;;;;;;2.30;0.97;;;9.80;99.90;;;;;;20534801;28;21138;-75
2021/04/17 07:25:21;;;;;;;0.30;0.30;;;10.20;99.90;;;;;;20536863;28;20291;-74
2021/04/17 07:35:24;;;;;;;0.40;0.40;;;10.60;99.90;;;;;;20530071;28;20658;-71
2021/04/17 07:45:31;;;;;;;2.10;1.33;;;11.10;99.90;;;;;;20531635;28;20547;-73
2021/04/17 07:55:34;;;;;;;3.90;1.63;;;11.40;99.90;;;;;;20529786;28;20216;-72
2021/04/17 08:05:45;;;;;;;0.80;0.80;;;11.70;99.90;;;;;;20530533;28;20310;-76
2021/04/17 08:15:48;;;;;;;0.97;0.87;;;11.70;99.90;;;;;;20507762;28;20303;-72
2021/04/17 08:25:55;;;;;;;4.77;1.40;;;12.00;99.90;;;;;;20501002;28;20725;-71
2021/04/17 08:35:59;;;;;;;0.90;0.87;;;12.20;99.90;;;;;;20488550;28;20223;-73
2021/04/17 08:46:14;;;;;;;0.87;0.80;;;12.60;99.90;;;;;;20523647;28;20246;-70
2021/04/17 08:56:19;;;;;;;0.93;0.90;;;12.70;99.90;;;;;;20528116;28;20224;-71
2021/04/17 09:06:44;;;;;;;3.23;1.50;;;13.00;99.90;;;;;;20526169;28;20220;-70
2021/04/17 09:16:47;;;;;;;0.50;0.40;;;13.30;99.90;;;;;;20528775;28;20228;-69
2021/04/17 09:26:51;;;;;;;0.73;0.73;;;13.70;99.90;;;;;;20538656;28;20662;-73
2021/04/17 09:36:54;;;;;;;1.70;0.50;;;13.80;99.90;;;;;;20538478;28;20220;-69
2021/04/17 09:47:11;;;;;;;0.77;0.60;;;13.90;99.90;;;;;;20535478;28;20208;-69
2021/04/17 09:57:15;;;;;;;0.30;0.20;;;14.40;99.90;;;;;;20536279;28;20216;-69
2021/04/17 10:07:20;;;;;;;0.63;0.50;;;14.60;99.90;;;;;;20535381;28;20763;-69
2021/04/17 10:17:23;;;;;;;8.87;0.60;;;14.90;99.90;;;;;;20534914;28;20278;-69
2021/04/17 10:27:33;;;;;;;1.90;1.07;;;15.40;99.90;;;;;;20536752;28;20208;-68
2021/04/17 10:37:43;;;;;;;0.47;0.43;;;15.50;99.90;;;;;;20534347;28;20250;-68
2021/04/17 10:48:01;;;;;;;1.00;0.90;;;15.70;99.90;;;;;;20532531;28;20208;-70
2021/04/17 10:58:05;;;;;;;8.83;2.27;;;15.60;99.90;;;;;;20531305;28;20503;-69
2021/04/17 11:08:08;;;;;;;0.30;0.30;;;15.90;99.90;;;;;;20533161;28;20283;-66
2021/04/17 11:18:17;;;;;;;3.30;2.03;;;16.50;99.90;;;;;;20530678;28;20270;-69
2021/04/17 11:28:21;;;;;;;0.70;0.70;;;17.60;99.90;;;;;;20532398;28;20227;-67
2021/04/17 11:38:24;;;;;;;1.13;0.73;;;17.20;99.90;;;;;;20527862;28;20235;-67
2021/04/17 11:48:27;;;;;;;1.33;0.83;;;17.70;99.90;;;;;;20532227;28;20196;-69
2021/04/17 11:58:31;;;;;;;3.60;1.10;;;17.70;99.90;;;;;;20527299;28;20235;-68
2021/04/17 12:08:34;;;;;;;1.57;0.67;;;17.00;99.90;;;;;;20529219;28;20232;-69
2021/04/17 12:18:37;;;;;;;1.90;1.70;;;15.20;99.90;;;;;;20528965;28;20685;-68
2021/04/17 12:28:42;;;;;;;1.57;0.77;;;16.20;99.90;;;;;;20529370;28;20724;-69
2021/04/17 12:38:45;;;;;;;0.63;0.60;;;15.40;99.90;;;;;;20510587;28;20238;-68
2021/04/17 12:48:49;;;;;;;2.00;1.13;;;14.70;99.90;;;;;;20513140;28;20470;-69
2021/04/17 12:58:53;;;;;;;0.30;0.30;;;14.30;99.90;;;;;;20539236;28;20314;-67
2021/04/17 13:08:57;;;;;;;0.90;0.70;;;14.80;99.90;;;;;;20464614;29;20260;-70
2021/04/17 13:18:59;;;;;;;1.87;0.53;;;15.00;99.90;;;;;;20465140;29;20318;-71
2021/04/17 13:29:03;;;;;;;0.90;0.70;;;14.50;99.90;;;;;;20448180;29;20586;-69
2021/04/17 13:39:10;;;;;;;2.83;0.93;;;14.70;99.90;;;;;;20468337;28;20204;-68
2021/04/17 13:49:14;;;;;;;2.00;1.50;;;15.90;99.90;;;;;;20525528;28;20267;-69
2021/04/17 13:59:19;;;;;;;0.70;0.50;;;16.50;99.90;;;;;;20520623;28;20279;-69
2021/04/17 14:09:23;;;;;;;0.90;0.73;;;15.80;99.90;;;;;;20523604;28;20636;-70
2021/04/17 14:19:25;;;;;;;1.20;0.60;;;15.30;99.90;;;;;;20535567;28;20268;-70
2021/04/17 14:29:29;;;;;;;1.80;0.80;;;16.70;99.90;;;;;;20534507;28;20200;-69
2021/04/17 14:39:34;;;;;;;0.33;0.23;;;17.20;99.90;;;;;;20515516;28;20207;-69
2021/04/17 14:49:37;;;;;;;0.63;0.50;;;17.50;99.90;;;;;;20533731;28;20219;-70
2021/04/17 14:59:40;;;;;;;0.60;0.60;;;17.10;99.90;;;;;;20523699;28;20256;-69
2021/04/17 15:09:43;;;;;;;0.40;0.37;;;17.10;99.90;;;;;;20531438;28;20220;-69
2021/04/17 15:19:46;;;;;;;0.63;0.63;;;16.70;99.90;;;;;;20528659;28;20263;-70
2021/04/17 15:29:49;;;;;;;0.33;0.33;;;15.40;99.90;;;;;;20530440;28;20740;-70
2021/04/17 15:39:53;;;;;;;0.67;0.53;;;14.90;99.90;;;;;;20528518;28;20203;-70
2021/04/17 15:49:56;;;;;;;0.63;0.63;;;14.10;99.90;;;;;;20528650;28;20383;-69
2021/04/17 16:20:45;;;;;;;6.47;0.73;;;15.30;99.90;;;;;;20506853;28;20259;-68
2021/04/17 16:30:49;;;;;;;0.30;0.30;;;14.80;99.90;;;;;;20537281;28;20231;-66
2021/04/17 16:40:51;;;;;;;0.20;0.10;;;15.20;99.90;;;;;;20544443;28;20503;-67
2021/04/17 16:50:55;;;;;;;5.33;1.20;;;15.00;99.90;;;;;;20543510;28;20224;-70
2021/04/17 17:00:58;;;;;;;1.43;1.33;;;14.40;99.90;;;;;;20542307;28;20259;-70
2021/04/17 17:11:03;;;;;;;0.20;0.20;;;14.30;99.90;;;;;;20540802;28;20494;-70
2021/04/17 17:21:06;;;;;;;1.37;0.67;;;14.10;99.90;;;;;;20541198;28;20517;-70
2021/04/17 17:31:09;;;;;;;0.37;0.20;;;15.90;99.90;;;;;;20537349;28;20224;-70
2021/04/17 17:41:12;;;;;;;0.30;0.30;;;14.20;99.90;;;;;;20536308;28;20200;-70
2021/04/17 17:51:16;;;;;;;0.53;0.53;;;13.10;99.90;;;;;;20540548;28;20236;-72
2021/04/17 18:01:19;;;;;;;0.30;0.30;;;12.80;99.90;;;;;;20537163;28;20220;-68
2021/04/17 18:11:22;;;;;;;0.70;0.60;;;12.60;99.90;;;;;;20530872;28;20575;-74
2021/04/17 18:21:25;;;;;;;0.57;0.37;;;12.40;99.90;;;;;;20514794;28;20196;-73
2021/04/17 18:31:28;;;;;;;0.57;0.57;;;12.30;99.90;;;;;;20537684;28;20589;-73
2021/04/17 18:41:31;;;;;;;0.20;0.20;;;12.20;99.90;;;;;;20517905;28;20211;-71
2021/04/17 18:51:35;;;;;;;0.40;0.40;;;11.90;99.90;;;;;;20534870;28;20256;-72
2021/04/17 19:01:38;;;;;;;0.73;0.73;;;11.50;99.90;;;;;;20533966;28;20286;-73
2021/04/17 19:11:41;;;;;;;0.20;0.20;;;11.70;99.90;;;;;;20515224;28;20659;-71
2021/04/17 19:21:44;;;;;;;3.13;0.90;;;11.70;99.90;;;;;;20531911;28;20623;-71
2021/04/17 19:31:50;;;;;;;3.10;1.50;;;11.70;99.90;;;;;;20530398;28;20696;-73
2021/04/17 19:41:52;;;;;;;14.70;1.03;;;11.70;99.90;;;;;;20502278;28;20207;-72
2021/04/17 19:51:57;;;;;;;0.63;0.63;;;11.60;99.90;;;;;;20515147;28;20559;-71
2021/04/17 20:01:59;;;;;;;1.10;0.73;;;11.40;99.90;;;;;;20499594;28;20740;-70
2021/04/17 20:12:04;;;;;;;0.70;0.63;;;11.50;99.90;;;;;;20533575;28;20239;-72
2021/04/17 20:22:10;;;;;;;0.87;0.60;;;11.50;99.90;;;;;;20454747;29;20291;-73
2021/04/17 20:32:14;;;;;;;0.67;0.60;;;11.50;99.90;;;;;;20453837;29;20286;-73
2021/04/17 20:42:17;;;;;;;0.30;0.30;;;11.50;99.90;;;;;;20448609;29;20208;-72
2021/04/17 20:52:21;;;;;;;0.50;0.50;;;11.50;99.90;;;;;;20454219;28;20588;-73
2021/04/17 21:02:46;;;;;;;0.90;0.60;;;11.40;99.90;;;;;;20451142;29;20224;-73
2021/04/17 21:12:49;;;;;;;1.33;1.23;;;11.20;99.90;;;;;;20435283;28;20870;-72
2021/04/17 21:22:53;;;;;;;0.23;0.23;;;11.10;99.90;;;;;;20447347;29;20203;-72
2021/04/17 21:32:56;;;;;;;0.53;0.40;;;10.80;99.90;;;;;;20428673;28;21051;-70
2021/04/17 21:43:01;;;;;;;0.67;0.67;;;10.60;99.90;;;;;;20462938;29;20268;-68
2021/04/17 21:53:05;;;;;;;1.23;0.97;;;10.40;99.90;;;;;;20388014;29;20233;-71
2021/04/17 22:03:07;;;;;;;0.60;0.53;;;10.20;99.90;;;;;;20415754;29;20709;-70
2021/04/17 22:13:12;;;;;;;2.30;1.23;;;10.10;99.90;;;;;;20460730;29;20220;-70
2021/04/17 22:23:15;;;;;;;0.40;0.40;;;10.10;99.90;;;;;;20421691;28;20193;-71
2021/04/17 22:33:19;;;;;;;0.83;0.83;;;10.20;99.90;;;;;;20462409;29;20227;-71
2021/04/17 22:43:22;;;;;;;1.53;1.43;;;10.10;99.90;;;;;;20388010;29;20201;-71
2021/04/17 22:53:26;;;;;;;0.90;0.90;;;10.20;99.90;;;;;;20381218;29;20233;-72
2021/04/17 23:03:28;;;;;;;0.97;0.50;;;10.30;99.90;;;;;;20411967;29;20220;-70
2021/04/17 23:13:32;;;;;;;0.47;0.47;;;10.20;99.90;;;;;;20456363;29;20407;-71
2021/04/17 23:23:36;;;;;;;1.93;1.37;;;10.10;99.90;;;;;;20455536;28;20248;-72
2021/04/17 23:33:40;;;;;;;4.63;1.20;;;10.00;99.90;;;;;;20454391;29;20308;-71
2021/04/17 23:43:42;;;;;;;1.13;1.00;;;10.00;99.90;;;;;;20454058;28;20196;-72
2021/04/17 23:53:46;;;;;;;0.63;0.63;;;9.90;99.90;;;;;;20454057;29;20263;-70
